createdAt,value
2022-07-29T03:50:10.660Z,23.9
2022-07-29T03:52:23.648Z,24.1
2022-07-29T03:54:38.603Z,23.9
2022-07-29T03:56:53.191Z,24.3
2022-07-29T03:59:08.089Z,24.6
2022-07-29T04:01:23.054Z,24.1
2022-07-29T04:03:38.254Z,23.9
2022-07-29T04:05:52.657Z,24.3
2022-07-29T04:08:07.533Z,24.2
2022-07-29T04:10:26.874Z,24.3
2022-07-29T04:12:50.982Z,24.3
2022-07-29T04:15:05.708Z,24.1
2022-07-29T04:17:20.618Z,24.1
2022-07-29T04:19:35.529Z,24
2022-07-29T04:21:50.130Z,23.9
2022-07-29T04:24:05.034Z,23.9
2022-07-29T04:26:19.873Z,24
2022-07-29T04:28:34.696Z,24.1
2022-07-29T04:30:49.610Z,24.1
2022-07-29T04:33:04.380Z,24.1
2022-07-29T04:35:19.203Z,24.1
2022-07-29T04:37:45.793Z,24.2
2022-07-29T04:40:00.620Z,24.1
2022-07-29T04:42:15.461Z,24.4
2022-07-29T04:44:30.303Z,24.3
2022-07-29T04:46:45.238Z,24.3
2022-07-29T04:48:59.988Z,24.3
2022-07-29T04:51:14.915Z,24.6
2022-07-29T04:53:29.688Z,23.9
2022-07-29T04:55:44.720Z,24.1
2022-07-29T04:57:59.453Z,23.9
2022-07-29T05:00:14.523Z,24
2022-07-29T05:02:29.185Z,23.6
2022-07-29T05:04:43.892Z,23.8
2022-07-29T05:06:58.806Z,23.8
2022-07-29T05:09:13.600Z,23.9
2022-07-29T05:11:30.462Z,23.6
2022-07-29T05:13:47.729Z,23.8
2022-07-29T05:16:02.670Z,23.4
2022-07-29T05:18:17.258Z,23.6
2022-07-29T05:20:32.049Z,23.7
2022-07-29T05:22:46.979Z,23.8
2022-07-29T05:25:05.620Z,23.8
2022-07-29T05:27:16.763Z,23.6
2022-07-29T05:29:45.876Z,23.8
2022-07-29T05:32:17.911Z,23.9
2022-07-29T05:34:49.989Z,23.9
2022-07-29T05:36:54.213Z,24.1
2022-07-29T05:39:08.898Z,24.1
2022-07-29T05:41:36.657Z,24.3
2022-07-29T05:43:51.111Z,24.1
2022-07-29T05:46:06.276Z,24.3
2022-07-29T05:48:21.139Z,24.1
2022-07-29T05:50:36.046Z,24.3
2022-07-29T05:52:50.775Z,24.3
2022-07-29T05:55:06.013Z,24.4
2022-07-29T05:57:20.896Z,24.3
2022-07-29T05:59:35.650Z,24.3
2022-07-29T06:01:50.556Z,24.4
2022-07-29T06:04:05.440Z,24.4
2022-07-29T06:06:20.311Z,24.8
2022-07-29T06:08:35.114Z,24.6
2022-07-29T06:10:50.059Z,24.5
2022-07-29T06:13:04.892Z,24.8
2022-07-29T06:15:19.678Z,24.8
2022-07-29T06:17:34.685Z,24.6
2022-07-29T06:19:49.969Z,24.8
2022-07-29T06:22:04.220Z,24.7
2022-07-29T06:24:19.540Z,24.8
2022-07-29T06:26:37.783Z,25
2022-07-29T06:28:48.664Z,25.1
2022-07-29T06:31:03.717Z,25.2
2022-07-29T06:33:19.062Z,25.2
2022-07-29T06:35:57.225Z,25.1
2022-07-29T06:38:25.175Z,25.1
2022-07-29T06:40:36.107Z,25.2
2022-07-29T06:42:51.003Z,25.3
2022-07-29T06:45:09.348Z,25.4
2022-07-29T06:47:22.175Z,25.4
2022-07-29T06:49:36.929Z,25.6
2022-07-29T06:51:51.891Z,25.6
2022-07-29T06:54:06.615Z,25.8
2022-07-29T06:56:21.444Z,25.8
2022-07-29T06:58:36.376Z,25.8
2022-07-29T07:00:51.275Z,25.6
2022-07-29T07:03:06.111Z,25.5
2022-07-29T07:05:20.805Z,25.5
2022-07-29T07:07:35.618Z,25.4
2022-07-29T07:09:50.641Z,25.9
2022-07-29T07:12:05.404Z,25.9
2022-07-29T07:14:21.028Z,25.9
2022-07-29T07:16:35.131Z,26
2022-07-29T07:18:49.916Z,26.3
2022-07-29T07:21:04.907Z,26.3
2022-07-29T07:23:19.701Z,26.3
2022-07-29T07:25:34.520Z,26.3
2022-07-29T07:27:49.528Z,26.4
2022-07-29T07:30:04.237Z,26.4
2022-07-29T07:32:19.149Z,26.4
2022-07-29T07:34:33.965Z,26.4
2022-07-29T07:36:48.795Z,26.6
2022-07-29T07:39:03.760Z,26.3
2022-07-29T07:41:18.343Z,26.2
2022-07-29T07:43:33.226Z,26.6
2022-07-29T07:46:00.093Z,26.4
2022-07-29T07:48:14.817Z,26.8
2022-07-29T07:50:29.598Z,26.6
2022-07-29T07:52:44.598Z,26.9
2022-07-29T07:54:59.414Z,26.9
2022-07-29T07:57:29.783Z,27
2022-07-29T07:59:44.524Z,27.1
2022-07-29T08:02:07.507Z,27.1
2022-07-29T08:04:27.248Z,27.5
2022-07-29T08:06:37.082Z,27.4
2022-07-29T08:08:52.032Z,27.5
2022-07-29T08:11:15.923Z,27.1
2022-07-29T08:13:30.830Z,27.3
2022-07-29T08:15:45.660Z,27.1
2022-07-29T08:18:02.297Z,27.2
2022-07-29T08:20:15.477Z,27.1
2022-07-29T08:22:30.064Z,27.3
2022-07-29T08:24:50.506Z,27.3
2022-07-29T08:27:12.907Z,27.4
2022-07-29T08:29:31.666Z,27.4
2022-07-29T08:31:46.609Z,27.3
2022-07-29T08:34:12.708Z,27.4
2022-07-29T08:36:27.606Z,27.5
2022-07-29T08:38:42.339Z,27.5
2022-07-29T08:40:57.132Z,27.4
2022-07-29T08:43:14.243Z,27.7
2022-07-29T08:45:29.352Z,27.5
2022-07-29T08:47:43.975Z,27.6
2022-07-29T08:49:58.872Z,27.6
2022-07-29T10:43:25.634Z,29.4
2022-07-29T10:45:40.392Z,29.4
2022-07-29T10:47:55.344Z,29.4
2022-07-29T10:50:13.972Z,29.9
2022-07-29T10:52:26.528Z,29.1
2022-07-29T12:09:07.728Z,29.3
2022-07-29T12:11:23.318Z,29.3
2022-07-29T12:13:39.396Z,29.1
2022-07-29T12:15:56.355Z,29.2
2022-07-29T12:18:11.040Z,29.6
2022-07-29T12:20:25.895Z,29.8
2022-07-29T12:22:40.273Z,29.5
2022-07-29T12:24:58.879Z,29.3
2022-07-29T12:27:28.645Z,29.5
2022-07-29T12:29:39.123Z,29.4
2022-07-29T12:32:02.804Z,29.6
2022-07-29T12:34:16.494Z,29.3
2022-07-29T12:36:35.195Z,29.3
2022-07-29T12:38:50.141Z,29.2
2022-07-29T12:41:05.181Z,29.1
2022-07-29T12:43:19.750Z,29.1
2022-07-29T12:45:34.581Z,29.2
2022-07-29T12:47:49.907Z,29.4
2022-07-29T12:50:04.367Z,29.3
2022-07-29T12:52:19.275Z,29.4
2022-07-29T12:54:34.009Z,29.4
2022-07-29T12:57:03.446Z,29.5
2022-07-29T12:59:18.000Z,29.9
2022-07-29T13:01:32.855Z,29.4
2022-07-29T13:03:56.744Z,29.6
2022-07-29T13:06:02.487Z,29.2
2022-07-29T13:08:30.402Z,29.2
2022-07-29T13:10:45.061Z,29.4
2022-07-29T13:13:00.086Z,29.4
2022-07-29T13:15:14.886Z,29.6
2022-07-29T13:17:32.628Z,29.2
2022-07-29T13:19:44.628Z,29.3
2022-07-29T13:21:59.831Z,29.4
2022-07-29T13:24:18.128Z,29.4
2022-07-29T13:26:29.021Z,29.4
2022-07-29T13:28:44.443Z,29.4
2022-07-29T13:30:58.881Z,29.5
2022-07-29T13:33:13.806Z,29.4
2022-07-29T13:35:28.427Z,29.6
2022-07-29T13:37:43.366Z,29.6
2022-07-29T13:39:58.254Z,29.5
2022-07-29T13:42:12.505Z,29.5
2022-07-29T13:44:27.976Z,29.4
2022-07-29T13:46:42.786Z,29.4
2022-07-29T13:48:57.586Z,29.6
2022-07-29T13:51:12.479Z,29.6
2022-07-29T13:53:27.437Z,29.5
2022-07-29T13:55:42.124Z,29.4
2022-07-29T13:57:57.070Z,29.6
2022-07-29T14:00:11.874Z,29.5
2022-07-29T14:02:26.856Z,29.5
2022-07-29T14:04:41.553Z,29.5
2022-07-29T14:06:56.394Z,29.5
2022-07-29T14:09:11.168Z,29.6
2022-07-29T14:11:26.213Z,29.4
2022-07-29T14:13:43.024Z,29.4
2022-07-29T14:15:57.781Z,29.4
2022-07-29T14:18:12.788Z,29.8
2022-07-29T14:20:27.616Z,29.4
2022-07-29T14:22:45.200Z,29.5
2022-07-29T14:24:57.191Z,29.5
2022-07-29T14:27:12.786Z,29.6
2022-07-29T14:29:35.356Z,29.4
2022-07-29T14:31:43.301Z,29.5
2022-07-29T14:34:02.479Z,29.6
2022-07-29T14:36:12.578Z,29.5
2022-07-29T14:38:27.958Z,29.5
2022-07-29T14:40:42.174Z,29.6
2022-07-29T14:42:57.704Z,29.6
2022-07-29T14:45:12.530Z,29.4
2022-07-29T14:47:27.306Z,29.4
2022-07-29T14:49:42.131Z,29.6
2022-07-29T14:51:57.277Z,29.4
2022-07-29T14:54:11.882Z,29.4
2022-07-29T14:56:46.426Z,29.6
2022-07-29T14:58:54.054Z,29.5
2022-07-29T15:01:08.988Z,29.5
2022-07-29T15:03:38.564Z,29.4
2022-07-29T15:05:49.836Z,29.6
2022-07-29T15:08:04.909Z,29.4
2022-07-29T15:10:19.168Z,29.5
2022-07-29T15:12:34.789Z,29.4
2022-07-29T15:14:49.721Z,29.4
2022-07-29T15:17:04.890Z,29.5
2022-07-29T15:19:19.549Z,29.4
2022-07-29T15:21:34.537Z,29.4
2022-07-29T15:23:49.652Z,29.4
2022-07-29T15:26:04.529Z,29.4
2022-07-29T15:28:19.609Z,29.6
2022-07-29T15:30:35.751Z,29.8
2022-07-29T15:32:50.336Z,29.5
2022-07-29T15:35:10.701Z,29.4
2022-07-29T15:37:48.231Z,29.6
2022-07-29T15:39:57.063Z,29.4
2022-07-29T15:42:08.524Z,29.5
2022-07-29T15:44:23.481Z,29.7
2022-07-29T15:46:38.416Z,29.3
2022-07-29T15:48:53.135Z,29.4
2022-07-29T15:51:07.943Z,29.4
2022-07-29T15:53:22.779Z,29.3
2022-07-29T15:55:37.625Z,29.4
2022-07-29T15:57:55.170Z,29.3
2022-07-29T16:00:07.275Z,29.4
2022-07-29T16:02:22.167Z,29.4
2022-07-29T16:04:37.016Z,29.6
2022-07-29T16:06:51.896Z,29.4
2022-07-29T16:09:06.802Z,29.6
2022-07-29T16:11:21.517Z,29.4
2022-07-29T16:13:36.473Z,29.6
2022-07-29T16:16:00.705Z,29.2
2022-07-29T16:18:06.143Z,29.4
2022-07-29T16:20:21.029Z,29.1
2022-07-29T16:22:35.923Z,29.9
2022-07-29T16:24:50.651Z,29.1
2022-07-29T16:27:16.733Z,29.5
2022-07-29T16:29:31.474Z,29.6
2022-07-29T16:31:46.456Z,29
2022-07-29T16:34:12.889Z,29.1
2022-07-29T16:36:27.631Z,29.1
2022-07-29T16:38:46.968Z,29.1
2022-07-29T16:40:57.386Z,29.3
2022-07-29T16:43:18.766Z,28.9
2022-07-29T16:45:41.846Z,28.9
2022-07-29T16:47:48.451Z,29.4
2022-07-29T16:50:03.212Z,29.2
2022-07-29T16:52:18.209Z,28.8
2022-07-29T16:54:33.304Z,29.4
2022-07-29T16:56:47.871Z,28.9
2022-07-29T16:59:03.101Z,28.9
2022-07-29T17:01:18.040Z,29.1
2022-07-29T17:03:33.047Z,29.1
2022-07-29T17:05:56.125Z,29.1
2022-07-29T17:08:11.571Z,29.1
2022-07-29T17:10:26.348Z,29.1
2022-07-29T17:12:56.887Z,29.6
2022-07-29T17:15:11.683Z,29.2
2022-07-29T17:17:38.483Z,29
2022-07-29T17:19:43.409Z,29.1
2022-07-29T17:22:04.963Z,28.9
2022-07-29T17:24:12.874Z,28.9
2022-07-29T17:26:28.087Z,29.1
2022-07-29T17:28:42.549Z,28.8
2022-07-29T17:30:57.431Z,28.9
2022-07-29T17:33:12.273Z,29
2022-07-29T17:35:27.214Z,28.7
2022-07-29T17:37:41.933Z,28.9
2022-07-29T17:40:00.254Z,28.8
2022-07-29T17:42:11.614Z,29
2022-07-29T17:44:26.526Z,28.9
2022-07-29T17:46:51.510Z,28.6
2022-07-29T17:49:06.520Z,28.8
2022-07-29T17:51:21.093Z,28.7
2022-07-29T17:53:35.893Z,28.9
2022-07-29T17:55:51.096Z,28.9
2022-07-29T17:58:05.716Z,28.8
2022-07-29T18:00:20.437Z,28.7
2022-07-29T18:02:35.474Z,28.6
2022-07-29T18:04:50.614Z,28.6
2022-07-29T18:07:05.122Z,28.3
2022-07-29T18:09:20.046Z,28.6
2022-07-29T18:11:34.862Z,28.5
2022-07-29T18:13:49.942Z,28.4
2022-07-29T18:16:04.538Z,28.5
2022-07-29T18:18:29.962Z,28.5
2022-07-29T18:20:44.704Z,28.3
2022-07-29T18:23:02.846Z,28.3
2022-07-29T18:25:17.760Z,28.3
2022-07-29T18:27:32.446Z,28.3
2022-07-29T18:29:51.043Z,27.8
2022-07-29T18:32:02.121Z,27.9
2022-07-29T18:34:26.208Z,28.1
2022-07-29T18:36:43.332Z,27.8
2022-07-29T18:39:20.191Z,27.6
2022-07-29T18:43:49.670Z,27.9
2022-07-29T18:46:04.529Z,28.1
2022-07-29T18:48:19.255Z,28
2022-07-29T18:50:34.163Z,28.1
2022-07-29T18:55:03.830Z,28
2022-07-29T18:57:59.549Z,27.9
2022-07-29T19:00:12.975Z,27.9
2022-07-29T19:02:27.977Z,28.1
2022-07-29T19:04:42.930Z,27.9
2022-07-29T19:06:57.885Z,28
2022-07-29T19:09:12.740Z,28.1
2022-07-29T19:11:28.320Z,28.1
2022-07-29T19:13:42.726Z,27.6
2022-07-29T19:15:57.565Z,27.7
2022-07-29T19:18:12.255Z,27.9
2022-07-29T19:20:27.475Z,28.1
2022-07-29T19:22:42.281Z,27.6
2022-07-29T19:25:08.795Z,27.7
2022-07-29T19:27:25.883Z,28
2022-07-29T19:31:55.517Z,27.9
2022-07-29T19:36:25.258Z,28
2022-07-29T19:38:39.991Z,27.7
2022-07-29T19:40:54.911Z,27.9
2022-07-29T19:45:39.967Z,27.9
2022-07-29T19:47:59.193Z,27.6
2022-07-29T19:50:09.635Z,27.6
2022-07-29T19:52:24.572Z,27.6
2022-07-29T19:54:39.293Z,27.5
2022-07-29T19:56:54.209Z,27.6
2022-07-29T19:59:08.983Z,27.6
2022-07-29T20:01:23.418Z,27.7
2022-07-29T20:03:38.794Z,27.4
2022-07-29T20:08:13.854Z,27.6
2022-07-29T20:10:28.634Z,27.8
2022-07-29T20:14:58.340Z,27.7
2022-07-29T20:17:13.150Z,27.9
2022-07-29T20:19:28.000Z,27.6
2022-07-29T20:23:57.718Z,27.8
2022-07-29T20:26:12.643Z,27.9
2022-07-29T20:28:27.395Z,28.1
2022-07-29T20:30:42.247Z,28.1
2022-07-29T20:35:11.890Z,27.7
2022-07-29T20:37:26.758Z,27.9
2022-07-29T20:39:43.237Z,27.9
2022-07-29T20:41:58.040Z,27.8
2022-07-29T20:44:12.843Z,27.9
2022-07-29T20:46:27.682Z,27.9
2022-07-29T20:50:57.683Z,27.4
2022-07-29T20:53:12.399Z,27.7
2022-07-29T20:55:27.103Z,27.4
2022-07-29T20:57:42.125Z,27.4
2022-07-29T20:59:56.938Z,27.5
2022-07-29T21:02:11.870Z,27.4
2022-07-29T21:04:27.161Z,27.5
2022-07-29T21:06:41.684Z,27.3
2022-07-29T21:08:56.869Z,27.1
2022-07-29T21:11:11.008Z,27.4
2022-07-29T21:13:30.625Z,27.3
2022-07-29T21:15:45.508Z,27.4
2022-07-29T21:18:00.406Z,27.3
2022-07-29T21:20:15.194Z,27.3
2022-07-29T21:22:30.025Z,27.2
2022-07-29T21:24:45.187Z,27.3
2022-07-29T21:27:19.545Z,27.1
2022-07-29T21:29:22.015Z,27.1
2022-07-29T21:31:36.953Z,27.1
2022-07-29T21:33:51.831Z,27.2
2022-07-29T21:36:55.057Z,27.1
2022-07-29T21:39:09.742Z,27.1
2022-07-29T21:41:24.695Z,27.1
2022-07-29T21:43:41.832Z,26.7
2022-07-29T21:45:54.459Z,27
2022-07-29T21:48:09.121Z,26.9
2022-07-29T21:50:24.035Z,26.8
2022-07-29T21:52:38.912Z,26.8
2022-07-29T21:54:53.733Z,26.8
2022-07-29T21:57:09.000Z,26.8
2022-07-29T21:59:23.428Z,26.8
2022-07-29T22:01:38.897Z,26.7
2022-07-29T22:03:53.164Z,26.6
2022-07-29T22:06:08.060Z,26.6
2022-07-29T22:08:29.689Z,26.7
2022-07-29T22:10:44.395Z,26.6
2022-07-29T22:12:59.624Z,26.6
2022-07-29T22:15:14.273Z,26.6
2022-07-29T22:17:29.248Z,26.4
2022-07-29T22:19:44.379Z,26.4
2022-07-29T22:21:59.262Z,26.4
2022-07-29T22:24:14.308Z,26.3
2022-07-29T22:26:29.028Z,26.4
2022-07-29T22:28:44.418Z,26.3
2022-07-29T22:30:59.016Z,26.3
2022-07-29T22:33:16.894Z,26.3
2022-07-29T22:35:29.088Z,26.1
2022-07-29T22:37:43.805Z,26.3
2022-07-29T22:39:58.892Z,26.3
2022-07-29T22:42:13.772Z,26.3
2022-07-29T22:44:28.840Z,26.2
2022-07-29T22:46:43.731Z,26.2
2022-07-29T22:49:06.354Z,26.3
2022-07-29T22:51:20.975Z,26.4
2022-07-29T22:53:35.838Z,26.3
2022-07-29T22:55:50.674Z,26.4
2022-07-29T22:58:05.547Z,26.3
2022-07-29T23:00:20.373Z,26.3
2022-07-29T23:02:39.495Z,26.6
2022-07-29T23:04:54.265Z,26.5
2022-07-29T23:07:09.146Z,26.4
2022-07-29T23:09:24.067Z,26.6
2022-07-29T23:11:38.924Z,26.6
2022-07-29T23:13:53.733Z,26.6
2022-07-29T23:16:08.559Z,26.6
2022-07-29T23:18:23.408Z,26.3
2022-07-29T23:20:38.243Z,26.6
2022-07-29T23:22:53.142Z,26.4
2022-07-29T23:25:08.890Z,26.5
2022-07-29T23:27:22.806Z,26.6
2022-07-29T23:29:37.865Z,26.5
2022-07-29T23:31:52.553Z,26.6
2022-07-29T23:34:07.523Z,26.6
2022-07-29T23:36:22.242Z,26.4
2022-07-29T23:38:37.097Z,26.7
2022-07-29T23:40:52.157Z,26.6
2022-07-29T23:43:08.454Z,26.6
2022-07-29T23:45:21.643Z,27
2022-07-29T23:47:36.371Z,26.7
2022-07-29T23:49:51.315Z,26.6
2022-07-29T23:52:06.118Z,26.4
2022-07-29T23:54:21.059Z,26.5
2022-07-29T23:56:56.602Z,26.8
2022-07-29T23:59:11.493Z,26.8
